Time;durP1;ratioP1;P1;durP2;ratioP2;P2;SDS_P1;SDS_P2;PMS_P1;PMS_P2;Temp;Humidity;BMP_temperature;BMP_pressure;BME280_temperature;BME280_humidity;BME280_pressure;Samples;Min_cycle;Max_cycle;Signal;HPM_P1;HPM_P2
2023/12/06 00:01:35;;;;;;;1.87;0.70;;;;;;;;;;6317125;22;20381;-88
2023/12/06 00:04:01;;;;;;;0.97;0.97;;;;;;;;;;6318570;22;20380;-90
2023/12/06 00:06:27;;;;;;;1.63;0.63;;;;;;;;;;6320476;22;20376;-89
2023/12/06 00:08:53;;;;;;;0.70;0.70;;;;;;;;;;6312723;22;20407;-89
2023/12/06 00:11:21;;;;;;;1.00;0.80;;;;;;;;;;6312817;22;20426;-88
2023/12/06 00:13:47;;;;;;;0.90;0.77;;;;;;;;;;6312009;22;20380;-89
2023/12/06 00:16:13;;;;;;;1.10;1.00;;;;;;;;;;6315118;22;20369;-89
2023/12/06 00:18:41;;;;;;;1.37;0.80;;;;;;;;;;6312773;22;20360;-90
2023/12/06 00:21:07;;;;;;;0.80;0.70;;;;;;;;;;6317176;22;20809;-89
2023/12/06 00:23:33;;;;;;;0.70;0.67;;;;;;;;;;6314134;22;20381;-89
2023/12/06 00:25:59;;;;;;;0.80;0.80;;;;;;;;;;6315925;22;20661;-89
2023/12/06 00:28:25;;;;;;;0.70;0.63;;;;;;;;;;6314191;22;20419;-90
2023/12/06 00:30:51;;;;;;;0.70;0.60;;;;;;;;;;6317080;22;20428;-91
2023/12/06 00:33:17;;;;;;;1.57;0.70;;;;;;;;;;6315352;22;20373;-89
2023/12/06 00:35:43;;;;;;;0.60;0.53;;;;;;;;;;6315400;22;20380;-90
2023/12/06 00:38:10;;;;;;;0.70;0.50;;;;;;;;;;6315627;22;20412;-88
2023/12/06 00:40:36;;;;;;;0.60;0.60;;;;;;;;;;6311625;22;20380;-89
2023/12/06 00:43:05;;;;;;;0.73;0.60;;;;;;;;;;6314613;22;20475;-90
2023/12/06 00:45:31;;;;;;;0.70;0.60;;;;;;;;;;6312445;22;20416;-90
2023/12/06 00:47:57;;;;;;;1.23;0.70;;;;;;;;;;6312228;22;20871;-90
2023/12/06 00:50:23;;;;;;;1.00;0.70;;;;;;;;;;6311907;22;20384;-88
2023/12/06 00:52:49;;;;;;;0.83;0.70;;;;;;;;;;6313758;22;20433;-89
2023/12/06 00:55:15;;;;;;;5.93;0.77;;;;;;;;;;6311569;22;20383;-89
2023/12/06 00:57:41;;;;;;;0.60;0.60;;;;;;;;;;6312083;22;20384;-89
2023/12/06 01:00:08;;;;;;;0.80;0.80;;;;;;;;;;6311621;22;20380;-89
2023/12/06 01:02:34;;;;;;;0.60;0.60;;;;;;;;;;6317298;22;20384;-88
2023/12/06 01:05:00;;;;;;;0.60;0.60;;;;;;;;;;6314495;22;20375;-89
2023/12/06 01:07:26;;;;;;;0.70;0.53;;;;;;;;;;6314596;22;20423;-88
2023/12/06 01:09:52;;;;;;;0.70;0.60;;;;;;;;;;6314855;22;20372;-89
2023/12/06 01:12:19;;;;;;;0.80;0.60;;;;;;;;;;6311469;22;20875;-89
2023/12/06 01:14:46;;;;;;;1.00;0.90;;;;;;;;;;6313843;22;20364;-89
2023/12/06 01:17:12;;;;;;;1.90;0.70;;;;;;;;;;6312255;22;20388;-89
2023/12/06 01:19:38;;;;;;;0.67;0.57;;;;;;;;;;6310736;22;20392;-89
2023/12/06 01:22:04;;;;;;;0.70;0.60;;;;;;;;;;6311783;22;20365;-90
2023/12/06 01:24:30;;;;;;;0.60;0.60;;;;;;;;;;6312645;22;20377;-90
2023/12/06 01:26:56;;;;;;;1.33;0.70;;;;;;;;;;6314248;22;20758;-88
2023/12/06 01:29:22;;;;;;;1.10;0.80;;;;;;;;;;6312129;22;20365;-88
2023/12/06 01:31:48;;;;;;;0.90;0.83;;;;;;;;;;6312473;22;21006;-89
2023/12/06 01:34:14;;;;;;;0.70;0.60;;;;;;;;;;6312668;22;20369;-90
2023/12/06 01:36:40;;;;;;;0.70;0.53;;;;;;;;;;6316287;22;20386;-89
2023/12/06 01:39:07;;;;;;;1.03;0.93;;;;;;;;;;6310641;22;20380;-90
2023/12/06 01:41:33;;;;;;;0.80;0.70;;;;;;;;;;6314891;22;21187;-90
2023/12/06 01:43:59;;;;;;;1.10;1.00;;;;;;;;;;6314771;22;20371;-90
2023/12/06 01:46:25;;;;;;;1.07;0.50;;;;;;;;;;6315295;22;20459;-89
2023/12/06 01:48:51;;;;;;;0.80;0.70;;;;;;;;;;6314404;22;20408;-89
2023/12/06 01:51:20;;;;;;;0.70;0.60;;;;;;;;;;6310915;22;20396;-90
2023/12/06 01:53:47;;;;;;;0.70;0.60;;;;;;;;;;6311320;22;20388;-89
2023/12/06 01:56:13;;;;;;;1.43;0.60;;;;;;;;;;6314672;22;20399;-89
2023/12/06 01:58:39;;;;;;;0.70;0.60;;;;;;;;;;6311308;22;20420;-90
2023/12/06 02:01:06;;;;;;;0.80;0.60;;;;;;;;;;6311539;22;20414;-89
2023/12/06 02:03:32;;;;;;;1.43;0.77;;;;;;;;;;6313905;22;20376;-90
2023/12/06 02:05:59;;;;;;;0.67;0.67;;;;;;;;;;6314429;22;21090;-90
2023/12/06 02:08:25;;;;;;;0.70;0.70;;;;;;;;;;6313842;22;20420;-89
2023/12/06 02:10:51;;;;;;;0.60;0.60;;;;;;;;;;6311305;22;20416;-89
2023/12/06 02:13:20;;;;;;;0.93;0.70;;;;;;;;;;6312015;22;20859;-89
2023/12/06 02:15:47;;;;;;;0.77;0.50;;;;;;;;;;6313440;22;20438;-89
2023/12/06 02:18:13;;;;;;;0.70;0.67;;;;;;;;;;6313566;22;20403;-89
2023/12/06 02:20:39;;;;;;;0.60;0.60;;;;;;;;;;6312467;22;20396;-90
2023/12/06 02:23:05;;;;;;;0.77;0.60;;;;;;;;;;6311042;22;20866;-89
2023/12/06 02:25:31;;;;;;;0.70;0.70;;;;;;;;;;6312545;22;20357;-89
2023/12/06 02:27:58;;;;;;;0.70;0.70;;;;;;;;;;6310728;22;20408;-89
2023/12/06 02:30:23;;;;;;;0.70;0.70;;;;;;;;;;6313693;22;20456;-90
2023/12/06 02:32:49;;;;;;;1.03;0.60;;;;;;;;;;6311301;22;20368;-90
2023/12/06 02:35:26;;;;;;;0.70;0.60;;;;;;;;;;6309458;22;20725;-90
2023/12/06 02:37:52;;;;;;;0.60;0.60;;;;;;;;;;6307510;22;20387;-90
2023/12/06 02:40:20;;;;;;;0.77;0.77;;;;;;;;;;6315038;22;20384;-90
2023/12/06 02:42:46;;;;;;;1.23;0.90;;;;;;;;;;6310991;22;20372;-90
2023/12/06 02:45:12;;;;;;;0.60;0.50;;;;;;;;;;6310663;22;20388;-90
2023/12/06 02:47:37;;;;;;;0.70;0.70;;;;;;;;;;6312140;22;20446;-90
2023/12/06 02:50:04;;;;;;;0.80;0.60;;;;;;;;;;6311668;22;20380;-89
2023/12/06 02:52:30;;;;;;;0.67;0.60;;;;;;;;;;6311555;22;20382;-90
2023/12/06 02:54:56;;;;;;;1.10;0.60;;;;;;;;;;6308923;22;20396;-90
2023/12/06 02:57:22;;;;;;;0.80;0.70;;;;;;;;;;6311349;22;20442;-89
2023/12/06 02:59:48;;;;;;;0.60;0.50;;;;;;;;;;6308829;22;20384;-90
2023/12/06 03:02:14;;;;;;;0.70;0.67;;;;;;;;;;6313053;22;20388;-89
2023/12/06 03:04:40;;;;;;;0.60;0.60;;;;;;;;;;6310401;22;20450;-90
2023/12/06 03:07:06;;;;;;;0.60;0.57;;;;;;;;;;6312735;22;20415;-89
2023/12/06 03:09:37;;;;;;;0.70;0.67;;;;;;;;;;6311008;22;20447;-89
2023/12/06 03:12:04;;;;;;;0.87;0.50;;;;;;;;;;6319168;22;20396;-89
2023/12/06 03:14:30;;;;;;;0.70;0.70;;;;;;;;;;6311635;22;20378;-89
2023/12/06 03:16:56;;;;;;;0.80;0.60;;;;;;;;;;6315541;22;20410;-89
2023/12/06 03:19:22;;;;;;;0.70;0.70;;;;;;;;;;6311956;22;20475;-90
2023/12/06 03:21:48;;;;;;;1.83;0.70;;;;;;;;;;6310886;22;20380;-89
2023/12/06 03:24:14;;;;;;;0.60;0.57;;;;;;;;;;6308587;22;20384;-89
2023/12/06 03:26:40;;;;;;;0.80;0.80;;;;;;;;;;6310312;22;20380;-89
2023/12/06 03:29:06;;;;;;;0.60;0.57;;;;;;;;;;6309857;22;20522;-90
2023/12/06 03:31:32;;;;;;;1.10;1.00;;;;;;;;;;6312712;22;20372;-90
2023/12/06 03:33:57;;;;;;;0.60;0.50;;;;;;;;;;6310109;22;20372;-90
2023/12/06 03:36:23;;;;;;;0.77;0.50;;;;;;;;;;6313687;22;20376;-90
2023/12/06 03:38:49;;;;;;;0.60;0.57;;;;;;;;;;6312408;22;20376;-90
2023/12/06 03:41:15;;;;;;;1.00;0.50;;;;;;;;;;6313115;22;20448;-89
2023/12/06 03:43:41;;;;;;;0.70;0.60;;;;;;;;;;6317161;22;20428;-90
2023/12/06 03:46:08;;;;;;;0.80;0.67;;;;;;;;;;6310776;22;20460;-90
2023/12/06 03:48:34;;;;;;;0.70;0.60;;;;;;;;;;6312207;22;20427;-90
2023/12/06 03:51:00;;;;;;;0.60;0.50;;;;;;;;;;6310582;22;20379;-90
2023/12/06 03:53:26;;;;;;;0.60;0.50;;;;;;;;;;6310046;22;20384;-89
2023/12/06 03:55:52;;;;;;;0.60;0.60;;;;;;;;;;6312195;22;20396;-90
2023/12/06 03:58:18;;;;;;;0.70;0.70;;;;;;;;;;6309409;22;20377;-90
2023/12/06 04:00:44;;;;;;;0.80;0.60;;;;;;;;;;6309939;22;20621;-90
2023/12/06 04:03:12;;;;;;;1.37;0.77;;;;;;;;;;6311338;22;20366;-89
2023/12/06 04:05:38;;;;;;;0.70;0.60;;;;;;;;;;6315063;22;20387;-89
2023/12/06 04:08:04;;;;;;;2.50;1.17;;;;;;;;;;6306658;22;20487;-90
2023/12/06 04:10:30;;;;;;;0.90;0.90;;;;;;;;;;6310416;22;20376;-90
2023/12/06 04:12:56;;;;;;;2.70;1.00;;;;;;;;;;6311727;22;20410;-90
2023/12/06 04:15:22;;;;;;;3.53;1.50;;;;;;;;;;6313709;22;20368;-89
2023/12/06 04:17:48;;;;;;;0.93;0.87;;;;;;;;;;6310479;22;20407;-89
2023/12/06 04:20:14;;;;;;;1.37;1.00;;;;;;;;;;6309517;22;20388;-90
2023/12/06 04:22:40;;;;;;;1.70;1.40;;;;;;;;;;6309922;22;20725;-90
2023/12/06 04:25:06;;;;;;;2.27;2.07;;;;;;;;;;6311005;22;20380;-90
2023/12/06 04:27:32;;;;;;;2.43;1.50;;;;;;;;;;6311836;22;20424;-90
2023/12/06 04:29:58;;;;;;;1.30;1.20;;;;;;;;;;6308871;22;20417;-90
2023/12/06 04:32:24;;;;;;;1.70;0.97;;;;;;;;;;6307010;22;20361;-89
2023/12/06 04:34:54;;;;;;;2.03;1.60;;;;;;;;;;6308850;22;20843;-90
2023/12/06 04:37:20;;;;;;;1.40;0.60;;;;;;;;;;6309950;22;20380;-90
2023/12/06 04:39:46;;;;;;;1.10;1.00;;;;;;;;;;6309992;22;20372;-90
2023/12/06 04:42:12;;;;;;;1.37;0.90;;;;;;;;;;6312091;22;20917;-90
2023/12/06 04:44:38;;;;;;;1.03;0.93;;;;;;;;;;6309688;22;20368;-89
2023/12/06 04:47:04;;;;;;;1.67;1.17;;;;;;;;;;6314517;22;20469;-90
2023/12/06 04:49:30;;;;;;;1.33;1.00;;;;;;;;;;6309275;22;20376;-89
2023/12/06 04:51:56;;;;;;;0.60;0.60;;;;;;;;;;6307181;22;20418;-90
2023/12/06 04:54:25;;;;;;;0.70;0.60;;;;;;;;;;6307498;22;20896;-89
2023/12/06 04:56:51;;;;;;;0.73;0.60;;;;;;;;;;6310865;22;20364;-89
2023/12/06 04:59:17;;;;;;;0.87;0.73;;;;;;;;;;6309373;22;20593;-90
2023/12/06 05:01:43;;;;;;;0.63;0.50;;;;;;;;;;6307791;22;20424;-89
2023/12/06 05:04:09;;;;;;;11.63;1.07;;;;;;;;;;6306864;22;20467;-90
2023/12/06 05:06:35;;;;;;;0.77;0.77;;;;;;;;;;6307920;22;20378;-90
2023/12/06 05:09:01;;;;;;;0.67;0.57;;;;;;;;;;6307949;22;20431;-89
2023/12/06 05:11:27;;;;;;;0.80;0.60;;;;;;;;;;6309919;22;20461;-90
2023/12/06 05:13:53;;;;;;;0.60;0.50;;;;;;;;;;6311170;22;20818;-90
2023/12/06 05:16:19;;;;;;;0.60;0.50;;;;;;;;;;6315581;22;20388;-90
2023/12/06 05:18:45;;;;;;;0.60;0.50;;;;;;;;;;6310938;22;20418;-90
2023/12/06 05:21:11;;;;;;;0.60;0.60;;;;;;;;;;6312400;22;20390;-87
2023/12/06 05:23:37;;;;;;;0.60;0.50;;;;;;;;;;6311079;22;20460;-88
2023/12/06 05:26:04;;;;;;;1.27;0.70;;;;;;;;;;6312178;22;20388;-89
2023/12/06 05:28:30;;;;;;;1.00;0.67;;;;;;;;;;6311315;22;20424;-88
2023/12/06 05:30:56;;;;;;;0.90;0.80;;;;;;;;;;6314113;22;20462;-88
2023/12/06 05:33:22;;;;;;;0.80;0.77;;;;;;;;;;6311860;22;20398;-88
2023/12/06 05:35:48;;;;;;;1.90;0.70;;;;;;;;;;6315037;22;20376;-88
2023/12/06 05:38:14;;;;;;;0.97;0.60;;;;;;;;;;6310656;22;20387;-87
2023/12/06 05:40:40;;;;;;;0.60;0.60;;;;;;;;;;6310958;22;20403;-89
2023/12/06 05:43:06;;;;;;;0.63;0.63;;;;;;;;;;6309321;22;20388;-89
2023/12/06 05:45:32;;;;;;;0.97;0.70;;;;;;;;;;6311342;22;21059;-89
2023/12/06 05:47:58;;;;;;;2.17;0.70;;;;;;;;;;6311216;22;20430;-90
2023/12/06 05:50:24;;;;;;;0.70;0.60;;;;;;;;;;6314168;22;21121;-89
2023/12/06 05:52:50;;;;;;;0.60;0.50;;;;;;;;;;6313333;22;20376;-89
2023/12/06 05:55:16;;;;;;;1.00;0.80;;;;;;;;;;6313556;22;20387;-88
2023/12/06 05:57:42;;;;;;;0.90;0.70;;;;;;;;;;6312313;22;20376;-90
2023/12/06 06:00:12;;;;;;;0.70;0.70;;;;;;;;;;6311509;22;20375;-88
2023/12/06 06:02:38;;;;;;;0.60;0.60;;;;;;;;;;6313554;22;20445;-89
2023/12/06 06:05:04;;;;;;;0.63;0.63;;;;;;;;;;6311055;22;20863;-89
2023/12/06 06:07:30;;;;;;;1.00;0.87;;;;;;;;;;6313407;22;20444;-88
2023/12/06 06:09:56;;;;;;;0.77;0.77;;;;;;;;;;6311027;22;20778;-89
2023/12/06 06:12:22;;;;;;;0.60;0.60;;;;;;;;;;6312767;22;20460;-88
2023/12/06 06:14:48;;;;;;;0.80;0.77;;;;;;;;;;6309807;22;20790;-89
2023/12/06 06:17:14;;;;;;;0.70;0.70;;;;;;;;;;6312270;22;20875;-89
2023/12/06 06:19:40;;;;;;;0.60;0.60;;;;;;;;;;6311205;22;20365;-90
2023/12/06 06:22:06;;;;;;;0.70;0.70;;;;;;;;;;6315815;22;20405;-89
2023/12/06 06:24:32;;;;;;;0.70;0.70;;;;;;;;;;6310408;22;20395;-89
2023/12/06 06:26:58;;;;;;;0.60;0.60;;;;;;;;;;6311760;22;20447;-89
2023/12/06 06:29:24;;;;;;;0.80;0.80;;;;;;;;;;6309256;22;20369;-89
2023/12/06 06:31:50;;;;;;;1.07;0.70;;;;;;;;;;6312009;22;20383;-88
2023/12/06 06:34:16;;;;;;;0.83;0.80;;;;;;;;;;6311976;22;20377;-89
2023/12/06 06:36:42;;;;;;;0.80;0.70;;;;;;;;;;6315025;22;20457;-89
2023/12/06 06:39:12;;;;;;;1.50;0.80;;;;;;;;;;6312386;22;20717;-89
2023/12/06 06:41:38;;;;;;;1.23;0.90;;;;;;;;;;6309399;22;20381;-88
2023/12/06 06:44:04;;;;;;;0.70;0.60;;;;;;;;;;6310329;22;20723;-89
2023/12/06 06:46:30;;;;;;;1.93;0.90;;;;;;;;;;6312095;22;20426;-89
2023/12/06 06:48:56;;;;;;;0.90;0.70;;;;;;;;;;6317258;22;20416;-90
2023/12/06 06:51:32;;;;;;;1.23;1.10;;;;;;;;;;6314633;22;20509;-89
2023/12/06 06:53:58;;;;;;;0.80;0.70;;;;;;;;;;6319033;22;20376;-91
2023/12/06 06:56:24;;;;;;;0.70;0.70;;;;;;;;;;6310255;22;20383;-91
2023/12/06 06:58:51;;;;;;;0.80;0.70;;;;;;;;;;6347444;22;20533;-90
2023/12/06 07:01:18;;;;;;;1.80;1.00;;;;;;;;;;6372946;22;20370;-90
2023/12/06 07:03:44;;;;;;;0.80;0.77;;;;;;;;;;6350982;22;20404;-89
2023/12/06 07:06:10;;;;;;;1.27;0.90;;;;;;;;;;6317992;22;20411;-90
2023/12/06 07:08:37;;;;;;;0.67;0.63;;;;;;;;;;6318770;22;20403;-91
2023/12/06 07:11:04;;;;;;;6.37;1.77;;;;;;;;;;6340061;22;20428;-90
2023/12/06 07:13:31;;;;;;;1.90;1.43;;;;;;;;;;6319014;22;20433;-91
2023/12/06 07:15:58;;;;;;;1.17;1.00;;;;;;;;;;6317328;22;20390;-90
2023/12/06 07:18:24;;;;;;;0.83;0.70;;;;;;;;;;6318689;22;20395;-90
2023/12/06 07:20:51;;;;;;;1.30;1.20;;;;;;;;;;6315372;22;20371;-91
2023/12/06 07:23:18;;;;;;;1.33;1.10;;;;;;;;;;6322133;22;20931;-90
2023/12/06 07:25:44;;;;;;;0.70;0.60;;;;;;;;;;6317158;22;20459;-89
2023/12/06 07:28:10;;;;;;;0.83;0.83;;;;;;;;;;6315670;22;20427;-89
2023/12/06 07:30:36;;;;;;;0.80;0.80;;;;;;;;;;6316010;22;20435;-90
2023/12/06 07:33:02;;;;;;;1.17;0.70;;;;;;;;;;6318488;22;20372;-90
2023/12/06 07:35:27;;;;;;;1.20;1.00;;;;;;;;;;6314913;22;20375;-89
2023/12/06 07:37:53;;;;;;;1.10;1.00;;;;;;;;;;6363987;22;20437;-90
2023/12/06 07:40:20;;;;;;;1.13;1.03;;;;;;;;;;6371730;22;20406;-89
2023/12/06 07:42:47;;;;;;;0.70;0.70;;;;;;;;;;6385798;22;20358;-90
2023/12/06 07:47:51;;;;;;;0.63;0.63;;;;;;;;;;6354177;22;20503;-91
2023/12/06 07:50:31;;;;;;;0.80;0.70;;;;;;;;;;6333485;22;20388;-91
2023/12/06 07:52:57;;;;;;;1.00;0.90;;;;;;;;;;6305786;22;20476;-92
2023/12/06 07:55:23;;;;;;;0.70;0.67;;;;;;;;;;6331307;22;20413;-91
2023/12/06 07:57:52;;;;;;;1.30;1.20;;;;;;;;;;6358341;22;20409;-92
2023/12/06 08:00:19;;;;;;;2.40;0.90;;;;;;;;;;6334531;22;20388;-91
2023/12/06 08:02:45;;;;;;;1.83;0.90;;;;;;;;;;6332678;22;20400;-91
2023/12/06 08:05:11;;;;;;;1.47;1.37;;;;;;;;;;6331025;22;20371;-92
2023/12/06 08:07:38;;;;;;;1.27;1.17;;;;;;;;;;6329062;22;20403;-90
2023/12/06 08:10:13;;;;;;;1.83;1.60;;;;;;;;;;6334994;22;20403;-89
2023/12/06 08:12:39;;;;;;;2.80;1.03;;;;;;;;;;6327201;22;20446;-91
2023/12/06 08:15:06;;;;;;;2.33;1.10;;;;;;;;;;6323088;22;20664;-91
2023/12/06 08:17:32;;;;;;;1.10;0.90;;;;;;;;;;6323520;22;20468;-90
2023/12/06 08:20:01;;;;;;;1.10;0.90;;;;;;;;;;6323425;22;20371;-92
2023/12/06 08:22:27;;;;;;;1.10;1.00;;;;;;;;;;6322826;22;20425;-90
2023/12/06 08:24:57;;;;;;;1.87;1.57;;;;;;;;;;6323203;22;20451;-91
2023/12/06 08:27:27;;;;;;;3.00;2.10;;;;;;;;;;6326170;22;20427;-91
2023/12/06 08:29:54;;;;;;;3.03;2.00;;;;;;;;;;6321812;22;20399;-92
2023/12/06 08:32:20;;;;;;;2.60;2.40;;;;;;;;;;6350977;22;20440;-91
2023/12/06 08:34:46;;;;;;;2.37;2.17;;;;;;;;;;6324477;22;20387;-92
2023/12/06 08:37:12;;;;;;;3.17;2.83;;;;;;;;;;6324054;22;20371;-91
2023/12/06 08:39:39;;;;;;;4.87;4.17;;;;;;;;;;6348635;22;20391;-92
2023/12/06 08:42:06;;;;;;;3.50;3.20;;;;;;;;;;6324501;22;20375;-92
2023/12/06 08:44:38;;;;;;;3.57;3.27;;;;;;;;;;6353353;22;20368;-91
2023/12/06 08:47:07;;;;;;;4.90;3.43;;;;;;;;;;6359698;22;20415;-92
2023/12/06 08:49:44;;;;;;;3.83;3.43;;;;;;;;;;6330350;22;20808;-90
2023/12/06 08:52:10;;;;;;;4.90;3.67;;;;;;;;;;6328540;22;20383;-90
2023/12/06 08:54:38;;;;;;;6.97;4.17;;;;;;;;;;6330975;22;20380;-90
2023/12/06 08:57:04;;;;;;;4.83;4.30;;;;;;;;;;6329064;22;20386;-91
2023/12/06 08:59:30;;;;;;;3.27;2.97;;;;;;;;;;6326138;22;20371;-91
2023/12/06 09:01:57;;;;;;;4.87;4.13;;;;;;;;;;6327617;22;20372;-93
2023/12/06 09:04:23;;;;;;;5.20;4.50;;;;;;;;;;6325535;22;20368;-93
2023/12/06 09:06:49;;;;;;;4.63;4.10;;;;;;;;;;6326815;22;20348;-92
2023/12/06 09:09:17;;;;;;;5.33;3.93;;;;;;;;;;6326983;22;20422;-92
2023/12/06 09:11:44;;;;;;;8.27;5.10;;;;;;;;;;6328831;22;20399;-91
2023/12/06 09:14:10;;;;;;;5.83;4.60;;;;;;;;;;6327320;22;20407;-92
2023/12/06 09:16:42;;;;;;;9.07;5.00;;;;;;;;;;6326092;22;20376;-91
2023/12/06 09:19:08;;;;;;;6.37;5.40;;;;;;;;;;6328159;22;20371;-91
2023/12/06 09:21:41;;;;;;;7.50;5.67;;;;;;;;;;6327515;22;20376;-92
2023/12/06 09:24:10;;;;;;;7.57;5.20;;;;;;;;;;6327776;22;20375;-91
2023/12/06 09:26:36;;;;;;;6.70;4.70;;;;;;;;;;6327747;22;20376;-91
2023/12/06 09:29:02;;;;;;;8.30;5.00;;;;;;;;;;6326396;22;20467;-92
2023/12/06 09:31:32;;;;;;;6.80;5.30;;;;;;;;;;6329240;22;20506;-91
2023/12/06 09:34:02;;;;;;;5.80;5.13;;;;;;;;;;6338859;22;20646;-93
2023/12/06 09:36:30;;;;;;;7.00;6.13;;;;;;;;;;6336376;22;20379;-93
2023/12/06 09:38:58;;;;;;;7.80;5.30;;;;;;;;;;6337148;22;20384;-94
2023/12/06 09:41:33;;;;;;;6.40;5.40;;;;;;;;;;6338555;22;20375;-92
2023/12/06 09:44:02;;;;;;;8.27;5.83;;;;;;;;;;6336680;22;20412;-93
2023/12/06 09:46:28;;;;;;;5.97;4.90;;;;;;;;;;6336237;22;20411;-92
2023/12/06 09:48:55;;;;;;;7.57;6.47;;;;;;;;;;6335311;22;20439;-93
2023/12/06 09:51:33;;;;;;;6.07;5.47;;;;;;;;;;6360319;22;20389;-92
2023/12/06 09:54:00;;;;;;;6.23;4.97;;;;;;;;;;6340141;22;20371;-94
2023/12/06 09:56:26;;;;;;;9.30;6.23;;;;;;;;;;6336225;22;20387;-93
2023/12/06 09:58:56;;;;;;;7.83;5.73;;;;;;;;;;6339165;22;20384;-93
2023/12/06 10:01:22;;;;;;;6.57;5.27;;;;;;;;;;6339353;22;20355;-93
2023/12/06 10:03:49;;;;;;;8.27;5.90;;;;;;;;;;6339040;22;20431;-92
2023/12/06 10:06:19;;;;;;;4.53;4.13;;;;;;;;;;6300600;22;20378;-92
2023/12/06 10:08:51;;;;;;;8.27;5.43;;;;;;;;;;6244481;23;20417;-94
2023/12/06 10:11:17;;;;;;;7.90;5.80;;;;;;;;;;6219547;22;20398;-93
2023/12/06 10:21:31;;;;;;;7.50;5.97;;;;;;;;;;6324767;22;20446;-91
2023/12/06 10:24:01;;;;;;;6.70;5.90;;;;;;;;;;6335511;22;20418;-91
2023/12/06 10:26:35;;;;;;;4.80;4.40;;;;;;;;;;6336419;22;20463;-91
2023/12/06 10:29:04;;;;;;;5.47;4.70;;;;;;;;;;6335028;22;20735;-92
2023/12/06 10:31:45;;;;;;;5.90;5.20;;;;;;;;;;6334858;22;20382;-92
2023/12/06 10:34:17;;;;;;;7.67;5.00;;;;;;;;;;6362260;22;20329;-92
2023/12/06 10:36:43;;;;;;;6.30;5.00;;;;;;;;;;6307065;22;20381;-91
2023/12/06 10:49:42;;;;;;;8.20;5.40;;;;;;;;;;6360326;22;20724;-92
2023/12/06 10:52:09;;;;;;;6.40;4.90;;;;;;;;;;6361505;22;20384;-91
2023/12/06 10:54:39;;;;;;;7.37;5.50;;;;;;;;;;6335175;22;20431;-92
2023/12/06 10:57:18;;;;;;;;;;;;;;;;;;;;;
2023/12/06 11:02:21;;;;;;;4.03;3.63;;;;;;;;;;6356634;22;20435;-92
2023/12/06 11:04:50;;;;;;;6.03;4.13;;;;;;;;;;6332922;22;20379;-92
2023/12/06 11:07:33;;;;;;;4.77;4.10;;;;;;;;;;6333112;22;20414;-93
2023/12/06 11:41:18;;;;;;;4.33;3.47;;;;;;;;;;6357759;22;20552;-92
2023/12/06 11:43:51;;;;;;;6.60;4.73;;;;;;;;;;6330126;22;20371;-91
2023/12/06 11:46:25;;;;;;;5.10;4.10;;;;;;;;;;6329918;22;20363;-92
2023/12/06 11:48:51;;;;;;;4.67;3.97;;;;;;;;;;6331307;22;20419;-93
2023/12/06 11:51:43;;;;;;;5.50;3.87;;;;;;;;;;6332226;22;20376;-91
2023/12/06 11:54:14;;;;;;;6.30;4.60;;;;;;;;;;6361713;22;20759;-90
2023/12/06 11:56:48;;;;;;;7.93;4.43;;;;;;;;;;6334676;22;20384;-90
2023/12/06 11:59:15;;;;;;;6.83;4.40;;;;;;;;;;6302547;22;20378;-92
2023/12/06 12:01:41;;;;;;;4.77;4.27;;;;;;;;;;6328984;22;20438;-93
2023/12/06 12:04:16;;;;;;;6.40;4.87;;;;;;;;;;6299981;22;20361;-91
2023/12/06 12:06:49;;;;;;;9.27;5.30;;;;;;;;;;6308879;22;20433;-92
2023/12/06 12:09:18;;;;;;;6.63;4.97;;;;;;;;;;6273245;22;20380;-92
2023/12/06 12:11:45;;;;;;;4.93;4.40;;;;;;;;;;6274626;22;20379;-93
2023/12/06 12:14:14;;;;;;;7.17;4.30;;;;;;;;;;6273369;22;20443;-92
2023/12/06 12:16:41;;;;;;;6.57;4.73;;;;;;;;;;6279535;22;20368;-91
2023/12/06 12:19:11;;;;;;;7.17;4.73;;;;;;;;;;6271944;22;20886;-92
2023/12/06 12:21:39;;;;;;;5.70;4.60;;;;;;;;;;6276025;22;20379;-91
2023/12/06 12:24:07;;;;;;;5.10;4.53;;;;;;;;;;6272294;22;20417;-92
2023/12/06 12:26:33;;;;;;;4.50;3.90;;;;;;;;;;6264635;22;20388;-91
2023/12/06 12:28:59;;;;;;;7.80;4.37;;;;;;;;;;6262033;22;20419;-94
2023/12/06 12:31:28;;;;;;;7.07;4.80;;;;;;;;;;6262264;22;20411;-91
2023/12/06 12:33:57;;;;;;;7.23;4.40;;;;;;;;;;6261459;22;20400;-92
2023/12/06 12:36:24;;;;;;;5.93;4.47;;;;;;;;;;6320583;22;20376;-91
2023/12/06 12:38:53;;;;;;;7.23;4.57;;;;;;;;;;6317055;22;20387;-92
2023/12/06 12:41:19;;;;;;;5.13;3.83;;;;;;;;;;6317265;22;20409;-92
2023/12/06 12:43:45;;;;;;;4.20;3.80;;;;;;;;;;6315345;22;20379;-93
2023/12/06 12:46:11;;;;;;;6.23;4.23;;;;;;;;;;6344703;22;20364;-92
2023/12/06 12:48:37;;;;;;;5.90;5.20;;;;;;;;;;6317993;22;20942;-92
2023/12/06 12:51:13;;;;;;;5.93;4.50;;;;;;;;;;6318754;22;20379;-93
2023/12/06 12:53:45;;;;;;;4.30;3.83;;;;;;;;;;6317758;22;20379;-93
2023/12/06 12:56:14;;;;;;;5.90;4.10;;;;;;;;;;6320911;22;20755;-91
2023/12/06 12:58:40;;;;;;;5.93;4.23;;;;;;;;;;6317298;22;20600;-92
2023/12/06 13:01:07;;;;;;;4.70;4.20;;;;;;;;;;6320245;22;20395;-92
2023/12/06 13:03:33;;;;;;;5.90;4.50;;;;;;;;;;6320753;22;20418;-93
2023/12/06 13:05:59;;;;;;;5.13;4.13;;;;;;;;;;6318192;22;20360;-92
2023/12/06 13:08:30;;;;;;;4.07;3.60;;;;;;;;;;6320080;22;20411;-93
2023/12/06 13:10:56;;;;;;;7.30;4.60;;;;;;;;;;6319593;22;20371;-92
2023/12/06 13:13:22;;;;;;;7.07;5.10;;;;;;;;;;6320867;22;20383;-91
2023/12/06 13:15:48;;;;;;;4.97;4.43;;;;;;;;;;6318941;22;20400;-93
2023/12/06 13:18:15;;;;;;;4.83;4.10;;;;;;;;;;6319319;22;20426;-93
2023/12/06 13:20:42;;;;;;;4.80;4.30;;;;;;;;;;6321470;22;20407;-92
2023/12/06 13:23:08;;;;;;;4.53;3.93;;;;;;;;;;6320754;22;20429;-92
2023/12/06 13:25:34;;;;;;;6.40;4.40;;;;;;;;;;6319298;22;20391;-93
2023/12/06 13:28:00;;;;;;;4.40;3.73;;;;;;;;;;6318746;22;20487;-92
2023/12/06 13:30:26;;;;;;;6.07;4.37;;;;;;;;;;6321088;22;20375;-93
2023/12/06 13:32:52;;;;;;;3.80;3.40;;;;;;;;;;6330542;22;20375;-93
2023/12/06 13:35:18;;;;;;;4.23;3.87;;;;;;;;;;6322327;22;20376;-92
2023/12/06 13:37:44;;;;;;;4.83;3.60;;;;;;;;;;6326295;22;20383;-91
2023/12/06 13:40:10;;;;;;;7.17;4.73;;;;;;;;;;6322455;22;20379;-92
2023/12/06 13:42:36;;;;;;;7.37;4.40;;;;;;;;;;6321187;22;20426;-92
2023/12/06 13:45:03;;;;;;;6.87;5.13;;;;;;;;;;6321211;22;20451;-91
2023/12/06 13:47:30;;;;;;;6.63;4.63;;;;;;;;;;6324556;22;20419;-92
2023/12/06 13:49:56;;;;;;;5.20;3.80;;;;;;;;;;6322803;22;20796;-92
2023/12/06 13:52:22;;;;;;;8.13;5.10;;;;;;;;;;6323085;22;20378;-91
2023/12/06 13:54:48;;;;;;;4.80;4.13;;;;;;;;;;6288130;22;20384;-90
2023/12/06 13:57:14;;;;;;;6.03;4.60;;;;;;;;;;6289242;22;20394;-91
2023/12/06 13:59:40;;;;;;;7.30;4.30;;;;;;;;;;6286644;22;20412;-91
2023/12/06 14:02:06;;;;;;;9.50;5.73;;;;;;;;;;6289053;22;20719;-92
2023/12/06 14:04:32;;;;;;;4.13;3.73;;;;;;;;;;6286693;22;20380;-92
2023/12/06 14:06:58;;;;;;;4.37;3.87;;;;;;;;;;6287150;22;20365;-91
2023/12/06 14:09:27;;;;;;;8.37;4.80;;;;;;;;;;6286036;22;20365;-91
2023/12/06 14:12:03;;;;;;;4.60;3.80;;;;;;;;;;6292322;22;21138;-91
2023/12/06 14:14:38;;;;;;;4.67;3.23;;;;;;;;;;6263739;22;20372;-89
2023/12/06 14:17:05;;;;;;;3.90;3.50;;;;;;;;;;6284400;22;20446;-90
2023/12/06 14:19:31;;;;;;;5.03;4.07;;;;;;;;;;6285190;22;20905;-90
2023/12/06 14:21:57;;;;;;;5.80;3.60;;;;;;;;;;6284237;22;20824;-90
2023/12/06 14:24:23;;;;;;;4.13;3.23;;;;;;;;;;6288857;22;20369;-91
2023/12/06 14:26:50;;;;;;;6.07;4.27;;;;;;;;;;6342632;22;20371;-90
2023/12/06 14:29:17;;;;;;;3.87;3.20;;;;;;;;;;6320198;22;20774;-91
2023/12/06 14:31:43;;;;;;;5.40;3.40;;;;;;;;;;6319867;22;20379;-90
2023/12/06 14:34:10;;;;;;;4.80;4.33;;;;;;;;;;6321965;22;20379;-91
2023/12/06 14:36:39;;;;;;;3.97;3.67;;;;;;;;;;6322670;22;20379;-90
2023/12/06 14:39:05;;;;;;;4.03;3.63;;;;;;;;;;6326265;22;20437;-90
2023/12/06 14:41:34;;;;;;;4.90;4.40;;;;;;;;;;6321504;22;20400;-91
2023/12/06 14:44:00;;;;;;;5.10;3.90;;;;;;;;;;6327394;22;20384;-90
2023/12/06 14:46:26;;;;;;;5.20;3.53;;;;;;;;;;6320891;22;20425;-95
2023/12/06 14:48:52;;;;;;;4.43;4.03;;;;;;;;;;6325236;22;20461;-95
2023/12/06 14:51:18;;;;;;;31.57;6.70;;;;;;;;;;6324133;22;20383;-94
2023/12/06 14:53:44;;;;;;;4.17;3.73;;;;;;;;;;6323987;22;20608;-95
2023/12/06 14:56:11;;;;;;;6.20;4.40;;;;;;;;;;6318318;22;20435;-93
2023/12/06 14:58:37;;;;;;;5.30;4.27;;;;;;;;;;6328195;22;20398;-94
2023/12/06 15:01:03;;;;;;;4.90;3.77;;;;;;;;;;6329518;22;20451;-94
2023/12/06 15:03:30;;;;;;;5.90;4.17;;;;;;;;;;6332183;22;20450;-95
2023/12/06 15:05:57;;;;;;;26.33;6.83;;;;;;;;;;6331412;22;20494;-94
2023/12/06 15:08:23;;;;;;;4.67;4.27;;;;;;;;;;6331312;22;20427;-95
2023/12/06 15:10:53;;;;;;;5.53;4.40;;;;;;;;;;6326888;22;20756;-95
2023/12/06 15:13:21;;;;;;;4.77;4.20;;;;;;;;;;6332965;22;20388;-92
2023/12/06 15:15:54;;;;;;;5.67;4.00;;;;;;;;;;6348519;22;20790;-91
2023/12/06 15:18:20;;;;;;;5.70;4.43;;;;;;;;;;6321883;22;20685;-92
2023/12/06 15:20:49;;;;;;;5.20;4.40;;;;;;;;;;6319905;22;20838;-90
2023/12/06 15:23:15;;;;;;;9.77;4.20;;;;;;;;;;6320332;22;20745;-92
2023/12/06 15:25:43;;;;;;;6.27;3.93;;;;;;;;;;6320958;22;20380;-91
2023/12/06 15:28:09;;;;;;;4.90;4.40;;;;;;;;;;6323801;22;20439;-91
2023/12/06 15:30:36;;;;;;;6.23;4.47;;;;;;;;;;6327455;22;20375;-91
2023/12/06 15:33:03;;;;;;;4.60;3.80;;;;;;;;;;6328946;22;20392;-91
2023/12/06 15:35:30;;;;;;;4.70;3.87;;;;;;;;;;6346633;22;20390;-92
2023/12/06 15:37:57;;;;;;;5.80;4.50;;;;;;;;;;6321578;22;20383;-92